sensor_id;sensor_type;location;lat;lon;timestamp;pressure;altitude;pressure_sealevel;temperature;humidity
72116;BME280;59991;52.140;5.428;2023-09-07T00:00:10;102000.00;;;18.30;93.50
72116;BME280;59991;52.140;5.428;2023-09-07T00:00:42;101993.69;;;18.30;93.47
72116;BME280;59991;52.140;5.428;2023-09-07T00:01:13;101992.13;;;18.29;93.50
72116;BME280;59991;52.140;5.428;2023-09-07T00:01:45;101993.31;;;18.28;94.36
72116;BME280;59991;52.140;5.428;2023-09-07T00:02:17;101992.97;;;18.26;93.83
72116;BME280;59991;52.140;5.428;2023-09-07T00:02:58;101990.97;;;18.26;93.14
72116;BME280;59991;52.140;5.428;2023-09-07T00:03:31;101990.97;;;18.26;92.83
72116;BME280;59991;52.140;5.428;2023-09-07T00:04:03;101991.34;;;18.28;93.39
72116;BME280;59991;52.140;5.428;2023-09-07T00:04:35;101992.13;;;18.29;93.45
72116;BME280;59991;52.140;5.428;2023-09-07T00:05:07;101992.13;;;18.29;94.07
72116;BME280;59991;52.140;5.428;2023-09-07T00:05:40;101989.75;;;18.31;94.25
72116;BME280;59991;52.140;5.428;2023-09-07T00:06:12;101989.75;;;18.31;94.53
72116;BME280;59991;52.140;5.428;2023-09-07T00:06:43;101987.00;;;18.31;94.26
72116;BME280;59991;52.140;5.428;2023-09-07T00:07:15;101991.72;;;18.30;95.22
72116;BME280;59991;52.140;5.428;2023-09-07T00:07:46;101987.38;;;18.29;95.24
72116;BME280;59991;52.140;5.428;2023-09-07T00:08:18;101983.06;;;18.28;93.86
72116;BME280;59991;52.140;5.428;2023-09-07T00:08:49;101979.50;;;18.28;93.58
72116;BME280;59991;52.140;5.428;2023-09-07T00:09:20;101986.25;;;18.27;94.16
72116;BME280;59991;52.140;5.428;2023-09-07T00:09:53;101988.22;;;18.26;94.59
72116;BME280;59991;52.140;5.428;2023-09-07T00:10:25;101992.97;;;18.26;94.46
72116;BME280;59991;52.140;5.428;2023-09-07T00:11:05;101979.94;;;18.26;94.04
72116;BME280;59991;52.140;5.428;2023-09-07T00:11:37;101986.66;;;18.25;93.74
72116;BME280;59991;52.140;5.428;2023-09-07T00:12:09;101987.84;;;18.24;93.70
72116;BME280;59991;52.140;5.428;2023-09-07T00:12:40;101984.28;;;18.24;93.96
72116;BME280;59991;52.140;5.428;2023-09-07T00:13:12;101979.16;;;18.22;93.39
72116;BME280;59991;52.140;5.428;2023-09-07T00:13:43;101978.38;;;18.22;94.24
72116;BME280;59991;52.140;5.428;2023-09-07T00:14:15;101981.53;;;18.20;94.22
72116;BME280;59991;52.140;5.428;2023-09-07T00:14:46;101983.50;;;18.20;94.39
72116;BME280;59991;52.140;5.428;2023-09-07T00:15:18;101982.72;;;18.19;93.61
72116;BME280;59991;52.140;5.428;2023-09-07T00:15:51;101989.03;;;18.20;94.26
72116;BME280;59991;52.140;5.428;2023-09-07T00:16:22;101986.28;;;18.20;93.91
72116;BME280;59991;52.140;5.428;2023-09-07T00:16:54;101983.91;;;18.18;93.46
72116;BME280;59991;52.140;5.428;2023-09-07T00:17:26;101984.69;;;18.19;94.04
72116;BME280;59991;52.140;5.428;2023-09-07T00:17:57;101984.28;;;18.20;94.00
72116;BME280;59991;52.140;5.428;2023-09-07T00:18:30;101980.75;;;18.20;94.61
72116;BME280;59991;52.140;5.428;2023-09-07T00:19:02;101989.03;;;18.20;94.12
72116;BME280;59991;52.140;5.428;2023-09-07T00:19:34;101980.34;;;18.18;94.30
72116;BME280;59991;52.140;5.428;2023-09-07T00:20:08;101981.94;;;18.19;94.31
72116;BME280;59991;52.140;5.428;2023-09-07T00:20:45;101983.91;;;18.18;93.60
72116;BME280;59991;52.140;5.428;2023-09-07T00:21:16;101978.38;;;18.18;93.92
72116;BME280;59991;52.140;5.428;2023-09-07T00:21:48;101977.59;;;18.18;94.31
72116;BME280;59991;52.140;5.428;2023-09-07T00:22:19;101980.34;;;18.18;93.11
72116;BME280;59991;52.140;5.428;2023-09-07T00:22:51;101977.59;;;18.18;93.41
72116;BME280;59991;52.140;5.428;2023-09-07T00:23:22;101975.63;;;18.18;93.30
72116;BME280;59991;52.140;5.428;2023-09-07T00:23:54;101973.25;;;18.17;93.37
72116;BME280;59991;52.140;5.428;2023-09-07T00:24:26;101973.25;;;18.17;93.14
72116;BME280;59991;52.140;5.428;2023-09-07T00:24:58;101978.00;;;18.16;93.24
72116;BME280;59991;52.140;5.428;2023-09-07T00:25:47;101976.03;;;18.17;93.89
72116;BME280;59991;52.140;5.428;2023-09-07T00:26:18;101972.88;;;18.15;94.40
72116;BME280;59991;52.140;5.428;2023-09-07T00:26:50;101971.31;;;18.14;93.58
72116;BME280;59991;52.140;5.428;2023-09-07T00:27:21;101973.28;;;18.13;93.96
72116;BME280;59991;52.140;5.428;2023-09-07T00:27:53;101975.25;;;18.13;94.31
72116;BME280;59991;52.140;5.428;2023-09-07T00:28:24;101975.25;;;18.13;93.20
72116;BME280;59991;52.140;5.428;2023-09-07T00:28:56;101976.44;;;18.12;93.72
72116;BME280;59991;52.140;5.428;2023-09-07T00:29:28;101972.88;;;18.11;94.14
72116;BME280;59991;52.140;5.428;2023-09-07T00:29:59;101974.84;;;18.11;92.75
72116;BME280;59991;52.140;5.428;2023-09-07T00:30:31;101968.16;;;18.12;93.81
72116;BME280;59991;52.140;5.428;2023-09-07T00:31:03;101969.34;;;18.11;93.39
72116;BME280;59991;52.140;5.428;2023-09-07T00:31:35;101971.31;;;18.10;93.68
72116;BME280;59991;52.140;5.428;2023-09-07T00:32:06;101976.84;;;18.10;93.59
72116;BME280;59991;52.140;5.428;2023-09-07T00:32:38;101973.28;;;18.10;93.07
72116;BME280;59991;52.140;5.428;2023-09-07T00:33:10;101977.63;;;18.11;92.49
72116;BME280;59991;52.140;5.428;2023-09-07T00:33:42;101974.06;;;18.10;93.50
72116;BME280;59991;52.140;5.428;2023-09-07T00:34:13;101970.13;;;18.11;92.88
72116;BME280;59991;52.140;5.428;2023-09-07T00:34:45;101971.31;;;18.10;93.64
72116;BME280;59991;52.140;5.428;2023-09-07T00:35:17;101976.03;;;18.10;92.62
72116;BME280;59991;52.140;5.428;2023-09-07T00:35:49;101974.50;;;18.09;93.39
72116;BME280;59991;52.140;5.428;2023-09-07T00:36:20;101970.16;;;18.08;92.66
72116;BME280;59991;52.140;5.428;2023-09-07T00:36:52;101972.16;;;18.07;92.93
72116;BME280;59991;52.140;5.428;2023-09-07T00:37:23;101965.44;;;18.08;92.55
72116;BME280;59991;52.140;5.428;2023-09-07T00:38:12;101970.53;;;18.10;93.55
72116;BME280;59991;52.140;5.428;2023-09-07T00:38:43;101974.50;;;18.09;92.55
72116;BME280;59991;52.140;5.428;2023-09-07T00:39:15;101974.91;;;18.07;93.20
72116;BME280;59991;52.140;5.428;2023-09-07T00:39:46;101965.84;;;18.07;92.87
72116;BME280;59991;52.140;5.428;2023-09-07T00:40:18;101967.03;;;18.06;93.36
72116;BME280;59991;52.140;5.428;2023-09-07T00:40:49;101968.22;;;18.05;92.40
72116;BME280;59991;52.140;5.428;2023-09-07T00:41:21;101970.19;;;18.04;93.17
72116;BME280;59991;52.140;5.428;2023-09-07T00:41:52;101969.41;;;18.04;93.39
72116;BME280;59991;52.140;5.428;2023-09-07T00:42:24;101972.16;;;18.04;93.08
72116;BME280;59991;52.140;5.428;2023-09-07T00:42:55;101969.00;;;18.02;93.64
72116;BME280;59991;52.140;5.428;2023-09-07T00:43:26;101969.00;;;18.02;94.34
72116;BME280;59991;52.140;5.428;2023-09-07T00:43:58;101971.78;;;17.98;94.64
72116;BME280;59991;52.140;5.428;2023-09-07T00:44:29;101975.31;;;17.95;93.86
72116;BME280;59991;52.140;5.428;2023-09-07T00:45:01;101966.66;;;17.93;94.59
72116;BME280;59991;52.140;5.428;2023-09-07T00:45:33;101967.84;;;17.92;93.92
72116;BME280;59991;52.140;5.428;2023-09-07T00:46:04;101964.69;;;17.90;93.59
72116;BME280;59991;52.140;5.428;2023-09-07T00:46:36;101963.94;;;17.89;93.67
72116;BME280;59991;52.140;5.428;2023-09-07T00:47:07;101968.28;;;17.87;94.59
72116;BME280;59991;52.140;5.428;2023-09-07T00:47:39;101964.72;;;17.86;94.73
72116;BME280;59991;52.140;5.428;2023-09-07T00:48:12;101971.44;;;17.85;94.74
72116;BME280;59991;52.140;5.428;2023-09-07T00:48:44;101965.13;;;17.85;95.00
72116;BME280;59991;52.140;5.428;2023-09-07T00:49:16;101970.66;;;17.85;94.58
72116;BME280;59991;52.140;5.428;2023-09-07T00:49:47;101967.09;;;17.84;94.22
72116;BME280;59991;52.140;5.428;2023-09-07T00:50:19;101970.25;;;17.83;94.78
72116;BME280;59991;52.140;5.428;2023-09-07T00:50:51;101964.75;;;17.83;93.99
72116;BME280;59991;52.140;5.428;2023-09-07T00:51:22;101967.50;;;17.83;94.18
72116;BME280;59991;52.140;5.428;2023-09-07T00:51:54;101963.16;;;17.82;93.41
72116;BME280;59991;52.140;5.428;2023-09-07T00:52:27;101958.44;;;17.82;93.65
72116;BME280;59991;52.140;5.428;2023-09-07T00:52:59;101965.53;;;17.83;93.83
72116;BME280;59991;52.140;5.428;2023-09-07T00:53:31;101960.00;;;17.83;93.88
72116;BME280;59991;52.140;5.428;2023-09-07T00:54:03;101961.19;;;17.82;93.45
72116;BME280;59991;52.140;5.428;2023-09-07T00:54:34;101961.97;;;17.83;94.34
72116;BME280;59991;52.140;5.428;2023-09-07T00:55:08;101963.16;;;17.82;94.30
72116;BME280;59991;52.140;5.428;2023-09-07T00:55:40;101968.69;;;17.82;93.84
72116;BME280;59991;52.140;5.428;2023-09-07T00:56:11;101967.09;;;17.81;93.50
72116;BME280;59991;52.140;5.428;2023-09-07T00:56:43;101962.38;;;17.81;92.93
72116;BME280;59991;52.140;5.428;2023-09-07T00:57:14;101957.66;;;17.82;93.89
72116;BME280;59991;52.140;5.428;2023-09-07T00:57:46;101963.94;;;17.82;93.50
72116;BME280;59991;52.140;5.428;2023-09-07T00:58:18;101959.63;;;17.81;93.67
72116;BME280;59991;52.140;5.428;2023-09-07T00:58:50;101960.41;;;17.82;93.45
72116;BME280;59991;52.140;5.428;2023-09-07T00:59:22;101965.13;;;17.81;94.20
72116;BME280;59991;52.140;5.428;2023-09-07T00:59:54;101962.78;;;17.80;94.05
72116;BME280;59991;52.140;5.428;2023-09-07T01:00:26;101964.75;;;17.79;93.66
72116;BME280;59991;52.140;5.428;2023-09-07T01:00:58;101963.16;;;17.78;94.00
72116;BME280;59991;52.140;5.428;2023-09-07T01:01:30;101960.41;;;17.78;93.98
72116;BME280;59991;52.140;5.428;2023-09-07T01:02:04;101964.34;;;17.77;94.09
72116;BME280;59991;52.140;5.428;2023-09-07T01:02:37;101961.59;;;17.77;93.75
72116;BME280;59991;52.140;5.428;2023-09-07T01:03:08;101960.03;;;17.76;94.50
72116;BME280;59991;52.140;5.428;2023-09-07T01:03:40;101959.22;;;17.76;94.60
72116;BME280;59991;52.140;5.428;2023-09-07T01:04:12;101958.06;;;17.73;94.44
72116;BME280;59991;52.140;5.428;2023-09-07T01:04:44;101955.69;;;17.72;94.27
72116;BME280;59991;52.140;5.428;2023-09-07T01:05:15;101956.13;;;17.70;94.07
72116;BME280;59991;52.140;5.428;2023-09-07T01:06:02;101960.03;;;17.73;94.39
72116;BME280;59991;52.140;5.428;2023-09-07T01:06:40;101961.63;;;17.70;93.62
72116;BME280;59991;52.140;5.428;2023-09-07T01:07:19;101959.63;;;17.71;93.66
72116;BME280;59991;52.140;5.428;2023-09-07T01:07:55;101956.13;;;17.70;93.33
72116;BME280;59991;52.140;5.428;2023-09-07T01:08:39;101958.09;;;17.70;93.92
72116;BME280;59991;52.140;5.428;2023-09-07T01:09:19;101960.84;;;17.70;93.90
72116;BME280;59991;52.140;5.428;2023-09-07T01:09:56;101951.41;;;17.67;94.29
72116;BME280;59991;52.140;5.428;2023-09-07T01:10:29;101955.72;;;17.65;93.87
72116;BME280;59991;52.140;5.428;2023-09-07T01:11:00;101958.06;;;17.63;94.25
72116;BME280;59991;52.140;5.428;2023-09-07T01:11:36;101954.53;;;17.62;95.04
72116;BME280;59991;52.140;5.428;2023-09-07T01:12:14;101953.75;;;17.61;94.75
72116;BME280;59991;52.140;5.428;2023-09-07T01:12:45;101955.31;;;17.59;95.10
72116;BME280;59991;52.140;5.428;2023-09-07T01:13:18;101951.78;;;17.58;94.38
72116;BME280;59991;52.140;5.428;2023-09-07T01:13:50;101952.56;;;17.59;94.66
72116;BME280;59991;52.140;5.428;2023-09-07T01:14:26;101957.28;;;17.58;94.48
72116;BME280;59991;52.140;5.428;2023-09-07T01:14:57;101948.22;;;17.58;93.50
72116;BME280;59991;52.140;5.428;2023-09-07T01:15:29;101951.78;;;17.58;93.78
72116;BME280;59991;52.140;5.428;2023-09-07T01:16:01;101955.72;;;17.57;93.70
72116;BME280;59991;52.140;5.428;2023-09-07T01:16:33;101958.47;;;17.57;93.42
72116;BME280;59991;52.140;5.428;2023-09-07T01:17:09;101957.28;;;17.58;94.63
72116;BME280;59991;52.140;5.428;2023-09-07T01:17:43;101952.56;;;17.59;94.75
72116;BME280;59991;52.140;5.428;2023-09-07T01:18:16;101954.94;;;17.57;95.04
72116;BME280;59991;52.140;5.428;2023-09-07T01:18:56;101956.50;;;17.58;94.89
72116;BME280;59991;52.140;5.428;2023-09-07T01:19:28;101956.09;;;17.56;94.35
72116;BME280;59991;52.140;5.428;2023-09-07T01:20:04;101958.09;;;17.55;94.42
72116;BME280;59991;52.140;5.428;2023-09-07T01:20:41;101957.28;;;17.55;94.53
72116;BME280;59991;52.140;5.428;2023-09-07T01:21:14;101954.16;;;17.53;95.55
72116;BME280;59991;52.140;5.428;2023-09-07T01:21:46;101962.81;;;17.51;95.05
72116;BME280;59991;52.140;5.428;2023-09-07T01:22:19;101954.97;;;17.50;95.09
72116;BME280;59991;52.140;5.428;2023-09-07T01:22:54;101962.84;;;17.48;95.49
72116;BME280;59991;52.140;5.428;2023-09-07T01:23:26;101959.69;;;17.46;95.53
72116;BME280;59991;52.140;5.428;2023-09-07T01:23:58;101957.72;;;17.43;94.83
72116;BME280;59991;52.140;5.428;2023-09-07T01:24:30;101956.94;;;17.42;94.46
72116;BME280;59991;52.140;5.428;2023-09-07T01:25:02;101954.56;;;17.41;94.67
72116;BME280;59991;52.140;5.428;2023-09-07T01:25:36;101955.34;;;17.41;94.47
72116;BME280;59991;52.140;5.428;2023-09-07T01:26:09;101964.81;;;17.40;94.01
72116;BME280;59991;52.140;5.428;2023-09-07T01:26:40;101957.34;;;17.41;94.83
72116;BME280;59991;52.140;5.428;2023-09-07T01:27:13;101955.75;;;17.40;95.11
72116;BME280;59991;52.140;5.428;2023-09-07T01:27:45;101958.50;;;17.40;95.16
72116;BME280;59991;52.140;5.428;2023-09-07T01:28:17;101966.00;;;17.39;95.01
72116;BME280;59991;52.140;5.428;2023-09-07T01:28:49;101966.38;;;17.38;95.53
72116;BME280;59991;52.140;5.428;2023-09-07T01:29:21;101958.13;;;17.38;95.44
72116;BME280;59991;52.140;5.428;2023-09-07T01:29:52;101952.22;;;17.36;94.92
72116;BME280;59991;52.140;5.428;2023-09-07T01:30:26;101958.91;;;17.35;94.91
72116;BME280;59991;52.140;5.428;2023-09-07T01:30:58;101953.78;;;17.33;95.04
72116;BME280;59991;52.140;5.428;2023-09-07T01:31:30;101955.75;;;17.33;94.82
72116;BME280;59991;52.140;5.428;2023-09-07T01:32:01;101961.28;;;17.33;94.95
72116;BME280;59991;52.140;5.428;2023-09-07T01:32:33;101961.69;;;17.31;95.04
72116;BME280;59991;52.140;5.428;2023-09-07T01:33:05;101956.97;;;17.32;94.92
72116;BME280;59991;52.140;5.428;2023-09-07T01:33:36;101958.16;;;17.31;95.26
72116;BME280;59991;52.140;5.428;2023-09-07T01:34:08;101958.16;;;17.31;94.92
72116;BME280;59991;52.140;5.428;2023-09-07T01:34:40;101955.00;;;17.29;94.26
72116;BME280;59991;52.140;5.428;2023-09-07T01:35:14;101958.16;;;17.31;94.92
72116;BME280;59991;52.140;5.428;2023-09-07T01:35:48;101951.06;;;17.30;94.55
72116;BME280;59991;52.140;5.428;2023-09-07T01:36:20;101963.66;;;17.31;94.89
72116;BME280;59991;52.140;5.428;2023-09-07T01:36:51;101951.06;;;17.30;94.72
72116;BME280;59991;52.140;5.428;2023-09-07T01:37:23;101955.00;;;17.29;95.39
72116;BME280;59991;52.140;5.428;2023-09-07T01:37:54;101955.78;;;17.29;95.16
72116;BME280;59991;52.140;5.428;2023-09-07T01:38:26;101955.38;;;17.27;95.39
72116;BME280;59991;52.140;5.428;2023-09-07T01:38:57;101953.41;;;17.27;95.27
72116;BME280;59991;52.140;5.428;2023-09-07T01:39:29;101955.00;;;17.29;95.05
72116;BME280;59991;52.140;5.428;2023-09-07T01:40:00;101951.84;;;17.26;95.81
72116;BME280;59991;52.140;5.428;2023-09-07T01:40:32;101948.69;;;17.24;96.02
72116;BME280;59991;52.140;5.428;2023-09-07T01:41:03;101953.41;;;17.24;95.84
72116;BME280;59991;52.140;5.428;2023-09-07T01:41:35;101949.09;;;17.23;96.57
72116;BME280;59991;52.140;5.428;2023-09-07T01:42:07;101957.75;;;17.21;96.08
72116;BME280;59991;52.140;5.428;2023-09-07T01:42:38;101952.63;;;17.20;96.13
72116;BME280;59991;52.140;5.428;2023-09-07T01:43:09;101950.28;;;17.18;96.05
72116;BME280;59991;52.140;5.428;2023-09-07T01:43:42;101948.69;;;17.17;96.21
72116;BME280;59991;52.140;5.428;2023-09-07T01:44:14;101948.69;;;17.17;95.50
72116;BME280;59991;52.140;5.428;2023-09-07T01:44:45;101951.44;;;17.17;95.18
72116;BME280;59991;52.140;5.428;2023-09-07T01:45:17;101951.44;;;17.17;95.62
72116;BME280;59991;52.140;5.428;2023-09-07T01:45:48;101954.22;;;17.17;95.25
72116;BME280;59991;52.140;5.428;2023-09-07T01:46:20;101951.84;;;17.16;94.77
72116;BME280;59991;52.140;5.428;2023-09-07T01:46:51;101953.81;;;17.15;95.19
72116;BME280;59991;52.140;5.428;2023-09-07T01:47:23;101960.09;;;17.16;95.78
72116;BME280;59991;52.140;5.428;2023-09-07T01:47:55;101949.47;;;17.14;95.81
72116;BME280;59991;52.140;5.428;2023-09-07T01:48:26;101955.00;;;17.14;96.52
72116;BME280;59991;52.140;5.428;2023-09-07T01:48:58;101947.13;;;17.13;95.24
72116;BME280;59991;52.140;5.428;2023-09-07T01:49:29;101952.63;;;17.13;95.72
72116;BME280;59991;52.140;5.428;2023-09-07T01:50:01;101944.34;;;17.13;95.78
72116;BME280;59991;52.140;5.428;2023-09-07T01:50:33;101940.06;;;17.12;95.99
72116;BME280;59991;52.140;5.428;2023-09-07T01:51:05;101944.00;;;17.11;95.90
72116;BME280;59991;52.140;5.428;2023-09-07T01:51:36;101945.97;;;17.10;96.28
72116;BME280;59991;52.140;5.428;2023-09-07T01:52:08;101945.97;;;17.10;96.10
72116;BME280;59991;52.140;5.428;2023-09-07T01:52:39;101951.47;;;17.10;95.90
72116;BME280;59991;52.140;5.428;2023-09-07T01:53:11;101942.41;;;17.10;96.17
72116;BME280;59991;52.140;5.428;2023-09-07T01:53:42;101946.34;;;17.09;96.38
72116;BME280;59991;52.140;5.428;2023-09-07T01:54:14;101947.53;;;17.08;95.83
72116;BME280;59991;52.140;5.428;2023-09-07T01:54:45;101943.22;;;17.07;95.42
72116;BME280;59991;52.140;5.428;2023-09-07T01:55:17;101941.63;;;17.06;95.31
72116;BME280;59991;52.140;5.428;2023-09-07T01:55:49;101936.91;;;17.06;95.08
72116;BME280;59991;52.140;5.428;2023-09-07T01:57:13;101940.44;;;17.07;94.72
72116;BME280;59991;52.140;5.428;2023-09-07T01:57:44;101951.88;;;17.05;95.31
72116;BME280;59991;52.140;5.428;2023-09-07T01:58:16;101942.03;;;17.04;95.76
72116;BME280;59991;52.140;5.428;2023-09-07T01:58:47;101938.88;;;17.02;95.71
72116;BME280;59991;52.140;5.428;2023-09-07T01:59:19;101949.09;;;17.02;96.19
72116;BME280;59991;52.140;5.428;2023-09-07T01:59:50;101948.72;;;17.00;95.78
72116;BME280;59991;52.140;5.428;2023-09-07T02:00:22;101940.03;;;16.98;96.16
72116;BME280;59991;52.140;5.428;2023-09-07T02:00:57;101942.81;;;16.98;95.51
72116;BME280;59991;52.140;5.428;2023-09-07T02:01:31;101951.47;;;16.96;96.11
72116;BME280;59991;52.140;5.428;2023-09-07T02:02:03;101950.66;;;16.96;95.48
72116;BME280;59991;52.140;5.428;2023-09-07T02:02:34;101943.19;;;16.96;95.18
72116;BME280;59991;52.140;5.428;2023-09-07T02:03:06;101947.91;;;16.96;95.35
72116;BME280;59991;52.140;5.428;2023-09-07T02:03:38;101942.78;;;16.94;95.02
72116;BME280;59991;52.140;5.428;2023-09-07T02:04:09;101949.09;;;16.95;95.56
72116;BME280;59991;52.140;5.428;2023-09-07T02:04:41;101950.28;;;16.93;95.22
72116;BME280;59991;52.140;5.428;2023-09-07T02:05:17;101951.06;;;16.94;96.10
72116;BME280;59991;52.140;5.428;2023-09-07T02:05:49;101943.22;;;16.92;96.31
72116;BME280;59991;52.140;5.428;2023-09-07T02:06:21;101949.91;;;16.91;95.93
72116;BME280;59991;52.140;5.428;2023-09-07T02:06:52;101947.16;;;16.91;96.40
72116;BME280;59991;52.140;5.428;2023-09-07T02:07:24;101940.06;;;16.90;96.44
72116;BME280;59991;52.140;5.428;2023-09-07T02:07:55;101942.41;;;16.88;96.78
72116;BME280;59991;52.140;5.428;2023-09-07T02:08:27;101946.34;;;16.87;96.41
72116;BME280;59991;52.140;5.428;2023-09-07T02:08:59;101944.00;;;16.86;96.83
72116;BME280;59991;52.140;5.428;2023-09-07T02:09:30;101950.69;;;16.85;96.93
72116;BME280;59991;52.140;5.428;2023-09-07T02:10:02;101950.28;;;16.83;96.38
72116;BME280;59991;52.140;5.428;2023-09-07T02:10:36;101952.25;;;16.82;96.20
72116;BME280;59991;52.140;5.428;2023-09-07T02:11:08;101946.75;;;16.82;97.09
72116;BME280;59991;52.140;5.428;2023-09-07T02:11:40;101943.59;;;16.80;96.99
72116;BME280;59991;52.140;5.428;2023-09-07T02:12:12;101942.00;;;16.79;95.92
72116;BME280;59991;52.140;5.428;2023-09-07T02:12:45;101945.56;;;16.80;96.52
72116;BME280;59991;52.140;5.428;2023-09-07T02:13:17;101943.59;;;16.80;96.21
72116;BME280;59991;52.140;5.428;2023-09-07T02:13:48;101942.00;;;16.79;96.20
72116;BME280;59991;52.140;5.428;2023-09-07T02:14:20;101943.59;;;16.80;97.04
72116;BME280;59991;52.140;5.428;2023-09-07T02:14:52;101946.34;;;16.80;96.53
72116;BME280;59991;52.140;5.428;2023-09-07T02:15:23;101940.84;;;16.80;96.80
72116;BME280;59991;52.140;5.428;2023-09-07T02:16:45;101940.84;;;16.80;96.88
72116;BME280;59991;52.140;5.428;2023-09-07T02:17:17;101940.03;;;16.80;96.88
72116;BME280;59991;52.140;5.428;2023-09-07T02:17:49;101945.94;;;16.78;96.85
72116;BME280;59991;52.140;5.428;2023-09-07T02:18:21;101942.78;;;16.76;96.88
72116;BME280;59991;52.140;5.428;2023-09-07T02:19:01;101946.34;;;16.77;97.18
72116;BME280;59991;52.140;5.428;2023-09-07T02:19:32;101947.16;;;16.74;97.12
72116;BME280;59991;52.140;5.428;2023-09-07T02:20:04;101942.03;;;16.72;97.12
72116;BME280;59991;52.140;5.428;2023-09-07T02:20:42;101942.03;;;16.72;96.92
72116;BME280;59991;52.140;5.428;2023-09-07T02:21:14;101950.69;;;16.71;97.22
72116;BME280;59991;52.140;5.428;2023-09-07T02:21:45;101942.03;;;16.69;97.46
72116;BME280;59991;52.140;5.428;2023-09-07T02:22:17;101947.91;;;16.67;97.21
72116;BME280;59991;52.140;5.428;2023-09-07T02:22:48;101942.78;;;16.66;96.68
72116;BME280;59991;52.140;5.428;2023-09-07T02:23:20;101940.84;;;16.66;96.59
72116;BME280;59991;52.140;5.428;2023-09-07T02:23:51;101943.97;;;16.65;96.16
72116;BME280;59991;52.140;5.428;2023-09-07T02:24:23;101944.75;;;16.65;96.07
72116;BME280;59991;52.140;5.428;2023-09-07T02:24:54;101942.00;;;16.65;96.46
72116;BME280;59991;52.140;5.428;2023-09-07T02:25:26;101940.84;;;16.66;97.07
72116;BME280;59991;52.140;5.428;2023-09-07T02:25:59;101942.00;;;16.65;97.07
72116;BME280;59991;52.140;5.428;2023-09-07T02:27:20;101938.47;;;16.65;96.78
72116;BME280;59991;52.140;5.428;2023-09-07T02:27:52;101935.72;;;16.65;96.30
72116;BME280;59991;52.140;5.428;2023-09-07T02:28:26;101941.22;;;16.65;96.95
72116;BME280;59991;52.140;5.428;2023-09-07T02:28:58;101945.94;;;16.64;97.01
72116;BME280;59991;52.140;5.428;2023-09-07T02:29:29;101943.53;;;16.63;97.03
72116;BME280;59991;52.140;5.428;2023-09-07T02:30:04;101943.53;;;16.63;96.17
72116;BME280;59991;52.140;5.428;2023-09-07T02:30:36;101951.03;;;16.62;96.04
72116;BME280;59991;52.140;5.428;2023-09-07T02:31:08;101947.47;;;16.62;95.49
72116;BME280;59991;52.140;5.428;2023-09-07T02:31:40;101945.50;;;16.62;94.71
72116;BME280;59991;52.140;5.428;2023-09-07T02:32:12;101941.63;;;16.63;95.02
72116;BME280;59991;52.140;5.428;2023-09-07T02:32:44;101947.91;;;16.64;95.48
72116;BME280;59991;52.140;5.428;2023-09-07T02:33:15;101939.25;;;16.65;95.81
72116;BME280;59991;52.140;5.428;2023-09-07T02:33:47;101949.47;;;16.65;95.99
72116;BME280;59991;52.140;5.428;2023-09-07T02:34:18;101946.72;;;16.65;95.98
72116;BME280;59991;52.140;5.428;2023-09-07T02:34:50;101952.25;;;16.65;96.44
72116;BME280;59991;52.140;5.428;2023-09-07T02:35:21;101943.53;;;16.63;96.21
72116;BME280;59991;52.140;5.428;2023-09-07T02:35:54;101938.03;;;16.63;96.97
72116;BME280;59991;52.140;5.428;2023-09-07T02:36:25;101942.75;;;16.62;96.92
72116;BME280;59991;52.140;5.428;2023-09-07T02:36:57;101940.00;;;16.62;96.30
72116;BME280;59991;52.140;5.428;2023-09-07T02:37:28;101945.50;;;16.62;96.85
72116;BME280;59991;52.140;5.428;2023-09-07T02:38:18;101942.78;;;16.66;96.53
72116;BME280;59991;52.140;5.428;2023-09-07T02:38:49;101944.38;;;16.63;96.55
72116;BME280;59991;52.140;5.428;2023-09-07T02:39:21;101950.22;;;16.62;96.60
72116;BME280;59991;52.140;5.428;2023-09-07T02:39:53;101939.22;;;16.62;96.94
72116;BME280;59991;52.140;5.428;2023-09-07T02:40:25;101941.56;;;16.59;96.41
72116;BME280;59991;52.140;5.428;2023-09-07T02:40:57;101938.81;;;16.59;96.45
72116;BME280;59991;52.140;5.428;2023-09-07T02:41:28;101940.78;;;16.59;96.58
72116;BME280;59991;52.140;5.428;2023-09-07T02:42:00;101949.44;;;16.57;96.45
72116;BME280;59991;52.140;5.428;2023-09-07T02:42:31;101952.97;;;16.58;96.20
72116;BME280;59991;52.140;5.428;2023-09-07T02:43:03;101950.22;;;16.58;96.39
72116;BME280;59991;52.140;5.428;2023-09-07T02:43:53;101955.34;;;16.59;96.75
72116;BME280;59991;52.140;5.428;2023-09-07T02:44:24;101949.44;;;16.57;96.88
72116;BME280;59991;52.140;5.428;2023-09-07T02:44:56;101942.34;;;16.56;96.62
72116;BME280;59991;52.140;5.428;2023-09-07T02:45:45;101947.50;;;16.54;96.28
72116;BME280;59991;52.140;5.428;2023-09-07T02:46:16;101954.16;;;16.53;97.20
72116;BME280;59991;52.140;5.428;2023-09-07T02:46:48;101956.53;;;16.51;96.77
72116;BME280;59991;52.140;5.428;2023-09-07T02:47:19;101956.91;;;16.50;96.82
72116;BME280;59991;52.140;5.428;2023-09-07T02:47:51;101951.41;;;16.50;97.31
72116;BME280;59991;52.140;5.428;2023-09-07T02:48:23;101951.78;;;16.48;97.37
72116;BME280;59991;52.140;5.428;2023-09-07T02:48:56;101952.97;;;16.47;97.01
72116;BME280;59991;52.140;5.428;2023-09-07T02:49:29;101948.25;;;16.48;97.08
72116;BME280;59991;52.140;5.428;2023-09-07T02:50:00;101952.97;;;16.47;96.71
72116;BME280;59991;52.140;5.428;2023-09-07T02:50:33;101951.00;;;16.48;97.16
72116;BME280;59991;52.140;5.428;2023-09-07T02:51:05;101950.22;;;16.47;97.01
72116;BME280;59991;52.140;5.428;2023-09-07T02:51:36;101945.09;;;16.46;96.95
72116;BME280;59991;52.140;5.428;2023-09-07T02:52:08;101951.41;;;16.46;96.74
72116;BME280;59991;52.140;5.428;2023-09-07T02:52:40;101952.97;;;16.47;96.66